Time;durP1;ratioP1;P1;durP2;ratioP2;P2;SDS_P1;SDS_P2;PMS_P1;PMS_P2;Temp;Humidity;BMP_temperature;BMP_pressure;BME280_temperature;BME280_humidity;BME280_pressure;Samples;Min_cycle;Max_cycle;Signal;HPM_P1;HPM_P2
2023/04/28 00:01:11;;;;;;;12.80;6.87;;;;;;;15.65;47.82;97275.44;5071814;28;20519;-70
2023/04/28 00:03:36;;;;;;;9.40;6.60;;;;;;;15.65;47.87;97283.34;5090564;28;20646;-70
2023/04/28 00:06:02;;;;;;;11.80;7.30;;;;;;;15.62;47.73;97270.53;5080297;28;20272;-70
2023/04/28 00:08:28;;;;;;;12.80;7.20;;;;;;;15.61;47.60;97263.59;5091531;28;20231;-69
2023/04/28 00:10:54;;;;;;;11.67;6.50;;;;;;;15.59;47.75;97255.84;5090475;28;20182;-69
2023/04/28 00:13:19;;;;;;;14.40;6.97;;;;;;;15.64;48.06;97255.28;5090788;28;20431;-70
2023/04/28 00:15:45;;;;;;;13.97;6.93;;;;;;;15.67;48.10;97262.84;5093266;28;20552;-69
2023/04/28 00:18:10;;;;;;;17.73;6.50;;;;;;;15.75;47.90;97269.88;5089980;28;20190;-70
2023/04/28 00:20:36;;;;;;;13.60;6.97;;;;;;;15.78;47.57;97264.22;5099056;28;20284;-69
2023/04/28 00:23:01;;;;;;;19.07;7.27;;;;;;;15.77;47.68;97255.47;5081459;28;20186;-70
2023/04/28 00:25:27;;;;;;;7.47;6.50;;;;;;;15.79;47.90;97261.38;5075636;28;20312;-69
2023/04/28 00:27:52;;;;;;;9.63;6.60;;;;;;;15.84;47.89;97257.38;5071417;28;20261;-68
2023/04/28 00:30:18;;;;;;;11.33;6.93;;;;;;;15.84;47.70;97252.09;5069226;28;20199;-69
2023/04/28 00:32:43;;;;;;;9.93;6.90;;;;;;;15.78;47.63;97251.81;5085503;28;20182;-69
2023/04/28 00:35:09;;;;;;;13.03;6.60;;;;;;;15.78;47.27;97243.91;5095398;28;20937;-68
2023/04/28 00:37:35;;;;;;;11.13;6.77;;;;;;;15.80;47.36;97243.72;5081831;28;20901;-71
2023/04/28 00:40:01;;;;;;;12.23;7.10;;;;;;;15.82;47.09;97241.69;5080206;28;20288;-69
2023/04/28 00:42:26;;;;;;;11.50;7.20;;;;;;;15.86;47.00;97247.47;5093602;28;20554;-71
2023/04/28 00:44:52;;;;;;;12.10;7.13;;;;;;;15.86;47.37;97231.63;5089904;28;20228;-70
2023/04/28 00:47:18;;;;;;;12.70;7.80;;;;;;;15.82;47.74;97239.88;5099594;28;20650;-69
2023/04/28 00:49:44;;;;;;;15.13;7.77;;;;;;;15.81;48.05;97232.16;5088995;28;20174;-69
2023/04/28 00:52:09;;;;;;;12.30;7.83;;;;;;;15.85;48.05;97232.63;5071485;28;20473;-70
2023/04/28 00:54:35;;;;;;;19.63;8.23;;;;;;;15.75;48.04;97230.25;5071367;28;20455;-71
2023/04/28 00:57:01;;;;;;;10.10;7.80;;;;;;;15.83;47.89;97240.69;5069710;28;20276;-71
2023/04/28 00:59:28;;;;;;;10.97;7.30;;;;;;;15.84;48.10;97230.97;5081554;28;20217;-70
2023/04/28 01:01:53;;;;;;;13.13;7.07;;;;;;;15.74;48.55;97215.38;5071566;28;20780;-70
2023/04/28 01:04:19;;;;;;;17.30;7.47;;;;;;;15.81;48.61;97216.31;5071711;28;20523;-71
2023/04/28 01:06:46;;;;;;;11.23;7.13;;;;;;;15.86;48.42;97218.41;5090288;28;20266;-71
2023/04/28 01:09:11;;;;;;;15.60;7.87;;;;;;;15.86;48.38;97221.88;5086375;28;20415;-70
2023/04/28 01:11:37;;;;;;;11.33;7.63;;;;;;;15.87;48.24;97214.78;5095207;28;20486;-70
2023/04/28 01:14:03;;;;;;;15.23;7.73;;;;;;;15.82;48.63;97216.09;5082192;28;20931;-70
2023/04/28 01:16:31;;;;;;;9.87;7.50;;;;;;;15.85;48.64;97217.59;5091528;28;20269;-70
2023/04/28 01:18:56;;;;;;;9.23;7.00;;;;;;;15.88;48.42;97216.41;5083412;28;20511;-70
2023/04/28 01:21:32;;;;;;;13.90;6.93;;;;;;;15.86;48.53;97205.22;5068846;28;20411;-69
2023/04/28 01:23:58;;;;;;;10.67;6.90;;;;;;;15.84;48.76;97200.06;5076694;28;20195;-70
2023/04/28 01:26:23;;;;;;;10.47;7.10;;;;;;;15.84;49.11;97193.97;5075002;28;20434;-70
2023/04/28 01:28:49;;;;;;;13.03;6.53;;;;;;;15.90;49.14;97203.81;5091064;28;20498;-70
2023/04/28 01:31:15;;;;;;;8.37;6.70;;;;;;;15.91;49.28;97197.53;5068660;28;20275;-70
2023/04/28 01:33:47;;;;;;;15.10;6.60;;;;;;;15.94;49.02;97199.81;5064905;28;20526;-70
2023/04/28 01:36:12;;;;;;;10.03;6.50;;;;;;;15.95;49.11;97188.22;5050443;28;20560;-69
2023/04/28 01:38:38;;;;;;;15.37;6.93;;;;;;;15.94;49.50;97183.94;5051211;28;20217;-70
2023/04/28 01:41:03;;;;;;;9.70;6.40;;;;;;;15.91;50.00;97184.31;5063233;28;20685;-69
2023/04/28 01:43:29;;;;;;;10.87;6.63;;;;;;;15.92;50.15;97181.50;5051106;28;20187;-70
2023/04/28 01:45:55;;;;;;;8.23;6.63;;;;;;;15.84;50.08;97188.69;5051264;28;20763;-70
2023/04/28 01:48:20;;;;;;;12.77;6.50;;;;;;;15.67;50.87;97191.53;5049037;28;20213;-70
2023/04/28 01:50:45;;;;;;;8.23;5.97;;;;;;;15.74;51.01;97181.88;5052483;28;20288;-70
2023/04/28 01:53:11;;;;;;;11.47;6.10;;;;;;;15.76;51.07;97182.50;5050535;28;20301;-70
2023/04/28 01:55:37;;;;;;;9.77;5.83;;;;;;;15.64;51.39;97174.25;5052669;28;20592;-70
2023/04/28 01:58:02;;;;;;;6.60;5.83;;;;;;;15.72;51.25;97173.31;5049111;28;20249;-69
2023/04/28 02:00:28;;;;;;;9.27;6.30;;;;;;;15.72;51.20;97183.88;5063264;28;20625;-69
2023/04/28 02:02:53;;;;;;;10.47;6.47;;;;;;;15.70;51.07;97179.75;5050835;28;20183;-69
2023/04/28 02:05:19;;;;;;;10.30;8.13;;;;;;;15.70;51.22;97172.69;5052769;28;20592;-69
2023/04/28 02:07:45;;;;;;;9.87;6.30;;;;;;;15.59;51.66;97171.31;5044901;28;20195;-70
2023/04/28 02:10:10;;;;;;;14.57;6.17;;;;;;;15.64;51.83;97162.84;5049607;28;20190;-68
2023/04/28 02:12:36;;;;;;;7.67;4.60;;;;;;;15.68;50.63;97158.03;5052390;28;20207;-70
2023/04/28 02:15:01;;;;;;;5.47;4.50;;;;;;;15.66;50.55;97156.38;5056330;28;20261;-70
2023/04/28 02:17:29;;;;;;;13.70;6.50;;;;;;;15.68;50.58;97156.19;5053040;28;20318;-70
2023/04/28 02:19:57;;;;;;;13.10;7.80;;;;;;;15.73;50.86;97153.81;5053015;28;20191;-69
2023/04/28 02:22:23;;;;;;;9.00;6.30;;;;;;;15.77;50.69;97157.72;5052996;28;20528;-69
2023/04/28 02:24:49;;;;;;;6.57;5.80;;;;;;;15.82;49.99;97163.25;5052667;28;21050;-70
2023/04/28 02:27:14;;;;;;;8.30;5.63;;;;;;;15.78;50.38;97158.53;5048987;28;20434;-70
2023/04/28 02:29:41;;;;;;;6.20;4.80;;;;;;;15.78;50.42;97163.81;5053870;28;20209;-70
2023/04/28 02:32:06;;;;;;;8.00;5.20;;;;;;;15.76;50.75;97160.53;5044919;28;20212;-70
2023/04/28 02:34:32;;;;;;;5.03;4.47;;;;;;;15.80;50.77;97153.88;5055021;28;20466;-70
2023/04/28 02:36:57;;;;;;;6.90;5.30;;;;;;;15.83;50.38;97145.56;5052773;28;20563;-70
2023/04/28 02:39:25;;;;;;;10.80;5.10;;;;;;;15.81;50.16;97148.41;5049331;28;20226;-70
2023/04/28 02:41:54;;;;;;;5.00;4.50;;;;;;;15.84;50.13;97138.47;5052820;28;20195;-70
2023/04/28 02:44:20;;;;;;;4.03;3.63;;;;;;;15.90;48.94;97138.56;5039318;28;20477;-71
2023/04/28 02:46:45;;;;;;;5.03;4.00;;;;;;;15.91;49.30;97158.72;5037924;28;20454;-70
2023/04/28 02:49:11;;;;;;;8.40;4.20;;;;;;;15.87;49.80;97156.63;5030815;28;20201;-70
2023/04/28 02:51:36;;;;;;;5.90;4.30;;;;;;;15.89;49.93;97150.16;5036846;28;20196;-70
2023/04/28 02:54:02;;;;;;;6.13;3.83;;;;;;;15.92;50.18;97152.44;5041127;28;20310;-70
2023/04/28 02:56:28;;;;;;;4.63;4.10;;;;;;;15.91;50.26;97152.59;5035573;28;20183;-70
2023/04/28 02:58:54;;;;;;;5.87;3.93;;;;;;;15.95;50.46;97153.88;5037665;28;20188;-70
2023/04/28 03:01:19;;;;;;;4.70;3.60;;;;;;;15.99;50.67;97154.31;5034776;28;21222;-70
2023/04/28 03:03:45;;;;;;;7.27;4.20;;;;;;;16.00;51.46;97162.06;5037041;28;20191;-69
2023/04/28 03:06:10;;;;;;;6.93;4.67;;;;;;;16.01;52.02;97162.88;5032998;28;20654;-70
2023/04/28 03:08:36;;;;;;;11.70;4.53;;;;;;;15.95;52.10;97149.38;5024666;28;21449;-69
2023/04/28 03:11:01;;;;;;;6.13;3.97;;;;;;;15.80;52.87;97144.13;5028725;28;20571;-71
2023/04/28 03:13:28;;;;;;;6.17;4.10;;;;;;;15.84;53.77;97144.56;5030488;28;20294;-69
2023/04/28 03:15:54;;;;;;;4.30;3.90;;;;;;;15.89;53.66;97141.38;5030428;28;20750;-69
2023/04/28 03:18:21;;;;;;;7.00;4.70;;;;;;;15.88;53.81;97147.72;5028487;28;20473;-71
2023/04/28 03:20:46;;;;;;;5.87;4.60;;;;;;;15.91;54.71;97142.84;5029394;28;20191;-72
2023/04/28 03:23:11;;;;;;;6.50;4.90;;;;;;;15.93;54.84;97146.13;5035881;28;20469;-70
2023/04/28 03:25:37;;;;;;;5.90;4.87;;;;;;;15.81;56.02;97132.56;5027431;28;20353;-70
2023/04/28 03:28:02;;;;;;;5.40;4.73;;;;;;;15.87;56.12;97135.50;5029869;28;20299;-68
2023/04/28 03:30:28;;;;;;;6.20;4.60;;;;;;;15.85;55.98;97132.22;5033278;28;20196;-70
2023/04/28 03:32:53;;;;;;;6.73;5.30;;;;;;;15.72;57.30;97135.50;5028427;28;20225;-71
2023/04/28 03:35:19;;;;;;;7.43;5.47;;;;;;;15.59;57.60;97128.25;5026353;28;20302;-70
2023/04/28 03:37:44;;;;;;;8.13;5.63;;;;;;;15.57;57.58;97130.25;5028864;28;20188;-70
2023/04/28 03:40:10;;;;;;;8.00;5.67;;;;;;;15.60;57.24;97130.69;5027563;28;20199;-69
2023/04/28 03:42:36;;;;;;;7.77;4.70;;;;;;;15.60;57.43;97130.69;5025609;28;20183;-70
2023/04/28 03:45:01;;;;;;;6.53;5.00;;;;;;;15.65;57.67;97130.97;5030999;28;20549;-71
2023/04/28 03:47:27;;;;;;;7.00;5.50;;;;;;;15.64;57.72;97129.34;5022995;28;20226;-70
2023/04/28 03:49:52;;;;;;;6.80;5.70;;;;;;;15.65;58.06;97132.78;5026098;28;20183;-70
2023/04/28 03:52:18;;;;;;;8.00;6.23;;;;;;;15.65;57.65;97130.13;5027570;28;20200;-70
2023/04/28 03:54:43;;;;;;;7.33;5.17;;;;;;;15.48;58.55;97122.47;5028470;28;20224;-70
2023/04/28 03:57:09;;;;;;;8.17;5.67;;;;;;;15.45;58.59;97120.19;5021699;28;20199;-70
2023/04/28 03:59:34;;;;;;;6.83;5.13;;;;;;;15.48;58.84;97121.63;5028591;28;20270;-71
2023/04/28 04:02:00;;;;;;;6.97;4.73;;;;;;;15.48;58.70;97116.34;5028231;28;20215;-69
2023/04/28 04:04:25;;;;;;;5.77;5.03;;;;;;;15.49;58.62;97118.81;5025300;28;20357;-70
2023/04/28 04:06:51;;;;;;;9.33;5.63;;;;;;;15.52;58.69;97117.63;5028618;28;20230;-69
2023/04/28 04:09:16;;;;;;;7.27;5.60;;;;;;;15.48;59.15;97122.47;5027573;28;20620;-70
2023/04/28 04:11:42;;;;;;;8.80;6.57;;;;;;;15.50;59.21;97114.34;5028477;28;20192;-70
2023/04/28 04:14:07;;;;;;;10.20;6.00;;;;;;;15.48;59.68;97111.88;5029424;28;20313;-69
2023/04/28 04:16:33;;;;;;;7.43;6.63;;;;;;;15.50;59.50;97115.13;5031183;28;20199;-70
2023/04/28 04:18:58;;;;;;;6.63;4.90;;;;;;;15.57;59.04;97109.94;5026799;28;20187;-69
2023/04/28 04:21:23;;;;;;;6.93;4.50;;;;;;;15.62;57.92;97101.47;5028362;28;20204;-71
2023/04/28 04:23:49;;;;;;;7.43;3.93;;;;;;;15.62;56.61;97106.75;5033854;28;20634;-71
2023/04/28 04:26:14;;;;;;;3.93;3.50;;;;;;;15.68;55.56;97103.34;5027243;28;20199;-71
2023/04/28 04:28:40;;;;;;;4.53;3.30;;;;;;;15.51;53.77;97105.41;5028111;28;20199;-70
2023/04/28 04:31:05;;;;;;;3.30;3.00;;;;;;;15.68;53.58;97098.06;5031139;28;20274;-70
2023/04/28 04:33:33;;;;;;;7.23;3.80;;;;;;;15.70;53.18;97104.00;5025476;28;20353;-70
2023/04/28 04:35:58;;;;;;;4.73;3.23;;;;;;;15.64;52.46;97104.72;5026818;28;21349;-69
2023/04/28 04:38:24;;;;;;;3.60;3.30;;;;;;;15.70;52.83;97100.50;5027980;28;20427;-70
2023/04/28 04:40:49;;;;;;;7.57;3.70;;;;;;;15.70;52.85;97108.44;5027685;28;20200;-69
2023/04/28 04:43:15;;;;;;;4.80;3.27;;;;;;;15.78;53.29;97106.50;5027581;28;20282;-69
2023/04/28 04:45:40;;;;;;;5.10;3.10;;;;;;;15.81;53.21;97108.78;5030965;28;20671;-70
2023/04/28 04:48:06;;;;;;;6.00;3.40;;;;;;;15.86;53.34;97104.78;5019305;28;20282;-70
2023/04/28 04:50:31;;;;;;;5.93;3.43;;;;;;;15.95;53.51;97101.00;5026633;28;20665;-69
2023/04/28 04:52:57;;;;;;;4.80;3.53;;;;;;;15.94;53.82;97097.53;5034491;28;20210;-70
2023/04/28 04:55:22;;;;;;;6.60;3.20;;;;;;;16.01;54.10;97105.53;5024657;28;20246;-69
2023/04/28 04:57:48;;;;;;;3.53;3.23;;;;;;;15.87;54.38;97101.94;5028017;28;20196;-70
2023/04/28 05:00:15;;;;;;;4.00;3.60;;;;;;;15.94;54.88;97109.94;5028542;28;20218;-71
2023/04/28 05:02:41;;;;;;;8.10;3.97;;;;;;;15.92;55.79;97096.09;5028040;28;20558;-70
2023/04/28 05:05:07;;;;;;;6.07;3.93;;;;;;;15.95;56.07;97096.53;5024714;28;20490;-72
2023/04/28 05:07:33;;;;;;;5.13;3.80;;;;;;;15.99;56.22;97102.28;5026109;28;20562;-70
2023/04/28 05:09:58;;;;;;;9.13;3.93;;;;;;;16.00;56.78;97108.38;5023997;28;20427;-69
2023/04/28 05:12:24;;;;;;;4.50;3.73;;;;;;;15.99;57.45;97112.84;5026517;28;20223;-71
2023/04/28 05:14:49;;;;;;;6.60;4.33;;;;;;;15.92;58.15;97114.59;5031220;28;20219;-71
2023/04/28 05:17:15;;;;;;;4.83;4.03;;;;;;;15.90;58.33;97112.16;5023475;28;20191;-71
2023/04/28 05:19:40;;;;;;;5.10;4.33;;;;;;;15.87;58.88;97103.78;5035271;28;20196;-71
2023/04/28 05:22:06;;;;;;;5.87;4.30;;;;;;;15.87;59.16;97101.94;5033467;28;20179;-71
2023/04/28 05:24:31;;;;;;;4.73;4.00;;;;;;;15.85;59.75;97111.09;5034719;28;20608;-70
2023/04/28 05:26:57;;;;;;;5.23;4.27;;;;;;;15.94;59.81;97117.88;5035276;28;20218;-70
2023/04/28 05:29:23;;;;;;;5.03;4.27;;;;;;;15.93;59.97;97103.84;5036271;28;20199;-70
2023/04/28 05:31:48;;;;;;;5.37;3.90;;;;;;;15.92;60.24;97106.66;5035486;28;20473;-71
2023/04/28 05:34:14;;;;;;;6.93;4.30;;;;;;;15.87;60.45;97103.78;5036369;28;20749;-71
2023/04/28 05:36:39;;;;;;;5.60;4.97;;;;;;;15.90;60.63;97111.31;5029689;28;20579;-69
2023/04/28 05:39:04;;;;;;;6.27;4.80;;;;;;;15.88;60.82;97106.22;5037360;28;20186;-71
2023/04/28 05:41:30;;;;;;;5.63;4.67;;;;;;;15.91;61.04;97116.44;5027300;28;20253;-70
2023/04/28 05:43:55;;;;;;;13.00;5.00;;;;;;;15.99;60.92;97106.72;5035057;28;20183;-70
2023/04/28 05:46:21;;;;;;;5.30;4.20;;;;;;;15.95;60.98;97107.09;5037696;28;20607;-71
2023/04/28 05:48:46;;;;;;;7.27;4.63;;;;;;;15.97;61.38;97104.28;5032024;28;20810;-70
2023/04/28 05:51:12;;;;;;;5.80;4.40;;;;;;;15.97;61.48;97105.09;5037465;28;20281;-70
2023/04/28 05:53:37;;;;;;;5.70;4.90;;;;;;;15.93;61.70;97111.78;5029336;28;20265;-71
2023/04/28 05:56:03;;;;;;;5.23;4.63;;;;;;;15.92;61.96;97101.38;5037617;28;20305;-70
2023/04/28 05:58:28;;;;;;;7.90;4.80;;;;;;;15.86;62.05;97097.66;5010359;28;20191;-69
2023/04/28 06:00:54;;;;;;;9.70;4.90;;;;;;;15.87;62.18;97093.22;5043391;28;20195;-70
2023/04/28 06:03:20;;;;;;;11.93;4.77;;;;;;;15.89;62.13;97099.09;5028931;28;20188;-72
2023/04/28 06:05:45;;;;;;;8.03;4.80;;;;;;;15.85;62.37;97101.31;5032051;28;20215;-70
2023/04/28 06:08:11;;;;;;;14.70;5.23;;;;;;;15.87;62.63;97109.88;5036897;28;20191;-70
2023/04/28 06:10:36;;;;;;;8.83;5.07;;;;;;;15.85;62.91;97103.16;5029432;28;20203;-70
2023/04/28 06:13:03;;;;;;;10.30;5.00;;;;;;;15.89;62.92;97096.47;5038288;28;20207;-69
2023/04/28 06:15:29;;;;;;;10.57;5.43;;;;;;;15.86;63.29;97092.38;5031888;28;20211;-70
2023/04/28 06:17:55;;;;;;;13.33;5.50;;;;;;;15.90;63.61;97092.81;5028312;28;20442;-70
2023/04/28 06:20:20;;;;;;;8.53;4.70;;;;;;;15.82;63.86;97099.84;5030054;28;20431;-70
2023/04/28 06:22:46;;;;;;;7.63;4.63;;;;;;;15.86;63.71;97102.94;5030245;28;20191;-70
2023/04/28 06:25:11;;;;;;;5.00;4.07;;;;;;;15.79;63.97;97094.94;5031051;28;20211;-70
2023/04/28 06:27:36;;;;;;;11.10;4.60;;;;;;;15.83;63.95;97090.09;5027188;28;20239;-71
2023/04/28 06:30:02;;;;;;;9.20;4.83;;;;;;;15.88;63.88;97094.84;5029259;28;20288;-68
2023/04/28 06:32:27;;;;;;;5.50;4.70;;;;;;;15.88;63.92;97087.72;5026559;28;20235;-69
2023/04/28 06:34:53;;;;;;;7.70;5.07;;;;;;;15.86;64.05;97089.75;5029505;28;20217;-71
2023/04/28 06:37:18;;;;;;;8.77;5.60;;;;;;;15.92;63.82;97085.53;5028655;28;20196;-70
2023/04/28 06:39:44;;;;;;;9.40;4.83;;;;;;;15.94;64.39;97088.81;5030882;28;20566;-70
2023/04/28 06:42:09;;;;;;;6.33;3.80;;;;;;;15.94;63.75;97083.50;5028535;28;20310;-71
2023/04/28 06:44:35;;;;;;;10.90;4.50;;;;;;;15.96;64.06;97086.78;5032797;28;20226;-70
2023/04/28 06:47:00;;;;;;;6.93;4.13;;;;;;;15.97;63.81;97083.13;5024053;28;20179;-70
2023/04/28 06:49:26;;;;;;;4.67;4.27;;;;;;;15.95;64.11;97090.44;5023175;28;20326;-71
2023/04/28 06:51:51;;;;;;;5.57;4.23;;;;;;;15.92;64.38;97081.06;5022889;28;20220;-71
2023/04/28 06:54:17;;;;;;;5.23;4.73;;;;;;;15.96;64.43;97070.94;5026034;28;20591;-70
2023/04/28 06:56:42;;;;;;;9.57;4.70;;;;;;;15.97;64.79;97072.56;5027011;28;20196;-70
2023/04/28 06:59:07;;;;;;;5.03;4.17;;;;;;;15.94;64.79;97071.09;5024977;28;20566;-70
2023/04/28 07:01:33;;;;;;;4.53;4.13;;;;;;;15.95;64.54;97079.88;5027300;28;20915;-70
2023/04/28 07:03:58;;;;;;;6.40;4.37;;;;;;;16.01;64.51;97076.44;5027925;28;20283;-71
2023/04/28 07:06:26;;;;;;;5.93;4.60;;;;;;;16.03;64.67;97071.78;5027448;28;20286;-71
2023/04/28 07:08:52;;;;;;;4.90;4.40;;;;;;;16.05;64.62;97074.28;5027097;28;20282;-69
2023/04/28 07:11:17;;;;;;;4.50;4.10;;;;;;;16.09;64.63;97070.22;5023966;28;20526;-70
2023/04/28 07:13:45;;;;;;;8.27;4.40;;;;;;;16.06;64.66;97065.34;5026712;28;20563;-70
2023/04/28 07:16:10;;;;;;;7.00;4.57;;;;;;;16.09;64.68;97060.47;5029922;28;20689;-70
2023/04/28 07:18:36;;;;;;;5.60;4.20;;;;;;;16.15;64.44;97058.06;5025039;28;20533;-71
2023/04/28 07:21:01;;;;;;;4.30;3.80;;;;;;;16.24;64.46;97064.88;5035900;28;20200;-70
2023/04/28 07:23:27;;;;;;;8.60;3.90;;;;;;;16.26;64.62;97054.88;5034937;28;20265;-70
2023/04/28 07:25:52;;;;;;;4.03;3.73;;;;;;;16.34;64.39;97056.56;5032042;28;20249;-71
2023/04/28 07:28:17;;;;;;;7.50;3.97;;;;;;;16.33;64.32;97055.78;5019780;28;20204;-71
2023/04/28 07:30:43;;;;;;;4.77;4.27;;;;;;;16.39;64.43;97059.47;5031829;28;20337;-69
2023/04/28 07:33:08;;;;;;;4.60;3.40;;;;;;;16.40;64.10;97051.34;5020277;28;20216;-69
2023/04/28 07:35:34;;;;;;;6.73;3.63;;;;;;;16.41;64.02;97052.97;5025878;28;20298;-69
2023/04/28 07:37:59;;;;;;;4.20;3.80;;;;;;;16.32;64.46;97054.13;5026359;28;20202;-70
2023/04/28 07:40:25;;;;;;;6.83;3.60;;;;;;;16.29;64.40;97046.56;5026653;28;20747;-71
2023/04/28 07:42:50;;;;;;;11.53;3.67;;;;;;;16.37;64.37;97054.38;5026366;28;20195;-71
2023/04/28 07:45:16;;;;;;;3.90;3.50;;;;;;;16.36;64.69;97057.19;5023893;28;20250;-69
2023/04/28 07:47:42;;;;;;;4.83;3.80;;;;;;;16.32;64.89;97051.50;5020055;28;20307;-70
2023/04/28 07:50:08;;;;;;;5.07;3.40;;;;;;;16.36;65.20;97054.56;5027140;28;20567;-70
2023/04/28 07:52:33;;;;;;;3.90;3.47;;;;;;;16.46;64.84;97044.44;5025885;28;20246;-69
2023/04/28 07:54:59;;;;;;;5.33;3.70;;;;;;;16.47;65.27;97047.94;5026600;28;20454;-70
2023/04/28 07:57:24;;;;;;;3.93;3.47;;;;;;;16.37;65.77;97046.44;5025267;28;20286;-70
2023/04/28 07:59:50;;;;;;;3.63;3.30;;;;;;;16.46;65.43;97054.22;5026591;28;20679;-70
2023/04/28 08:02:15;;;;;;;5.70;3.90;;;;;;;16.39;66.30;97068.22;5023181;28;20558;-70
2023/04/28 08:04:41;;;;;;;4.20;3.80;;;;;;;16.02;67.59;97080.72;5022469;28;20638;-70
2023/04/28 08:07:07;;;;;;;6.13;3.73;;;;;;;16.18;67.57;97068.25;5028388;28;20799;-71
2023/04/28 08:09:33;;;;;;;5.40;4.03;;;;;;;15.86;68.88;97076.53;5027589;28;20289;-71
2023/04/28 08:11:59;;;;;;;5.33;3.90;;;;;;;15.97;68.61;97080.50;5029154;28;20461;-71
2023/04/28 08:14:25;;;;;;;4.50;4.00;;;;;;;16.13;68.54;97077.56;5031914;28;20976;-71
2023/04/28 08:16:50;;;;;;;5.10;3.90;;;;;;;15.89;69.65;97075.31;5028214;28;20207;-70
2023/04/28 08:19:16;;;;;;;3.97;3.60;;;;;;;16.06;68.92;97089.94;5027882;28;20183;-71
2023/04/28 08:21:41;;;;;;;4.90;4.33;;;;;;;16.03;69.35;97087.66;5031742;28;20191;-70
2023/04/28 08:24:09;;;;;;;4.80;3.60;;;;;;;16.16;69.24;97096.72;5038258;28;20291;-71
2023/04/28 08:26:35;;;;;;;4.60;4.20;;;;;;;16.16;69.13;97089.63;5033708;28;20187;-70
2023/04/28 08:29:01;;;;;;;4.60;4.13;;;;;;;16.11;69.38;97098.13;5033856;28;20800;-72
2023/04/28 08:31:26;;;;;;;4.70;3.97;;;;;;;16.22;69.12;97094.13;5035813;28;20509;-71
2023/04/28 08:33:52;;;;;;;4.90;4.30;;;;;;;16.33;69.45;97092.78;5035334;28;20287;-71
2023/04/28 08:36:17;;;;;;;4.20;3.80;;;;;;;16.41;68.96;97086.56;5039043;28;20765;-70
2023/04/28 08:38:44;;;;;;;5.03;3.50;;;;;;;16.47;69.03;97088.41;5034798;28;20696;-71
2023/04/28 08:41:11;;;;;;;4.60;4.10;;;;;;;16.56;69.21;97094.38;5030751;28;20241;-72
2023/04/28 08:43:39;;;;;;;4.33;3.90;;;;;;;16.63;69.14;97097.06;5032760;28;20975;-71
2023/04/28 08:46:07;;;;;;;4.57;3.83;;;;;;;16.55;69.70;97100.66;5040594;28;20449;-71
2023/04/28 08:48:40;;;;;;;4.93;4.30;;;;;;;16.53;69.94;97107.97;5032045;28;20884;-72
2023/04/28 08:51:06;;;;;;;6.00;3.70;;;;;;;16.74;69.19;97100.00;5033613;28;20529;-71
2023/04/28 08:53:36;;;;;;;5.50;4.20;;;;;;;16.83;69.25;97107.78;5030296;28;20983;-71
2023/04/28 08:56:04;;;;;;;8.50;4.33;;;;;;;16.84;69.40;97109.41;5038774;28;20479;-71
2023/04/28 08:58:30;;;;;;;4.13;3.77;;;;;;;16.91;69.38;97112.91;5029991;28;20434;-70
2023/04/28 09:00:55;;;;;;;3.33;3.03;;;;;;;16.93;69.30;97118.81;5030678;28;20969;-72
2023/04/28 09:03:21;;;;;;;3.87;3.50;;;;;;;16.99;69.24;97119.91;5030162;28;20218;-72
2023/04/28 09:05:46;;;;;;;3.80;3.40;;;;;;;17.02;69.47;97122.97;5031559;28;20226;-72
2023/04/28 09:08:12;;;;;;;4.73;3.60;;;;;;;17.09;69.49;97127.50;5028015;28;20195;-72
2023/04/28 09:10:38;;;;;;;3.47;3.10;;;;;;;17.12;69.70;97121.81;5027151;28;20210;-71
2023/04/28 09:13:03;;;;;;;3.50;3.20;;;;;;;17.19;69.80;97120.00;5028047;28;20211;-70
2023/04/28 09:15:30;;;;;;;3.93;3.57;;;;;;;17.24;69.90;97130.84;5031060;28;20251;-70
2023/04/28 09:17:55;;;;;;;3.60;3.37;;;;;;;17.28;70.04;97132.06;5028829;28;20192;-70
2023/04/28 09:20:26;;;;;;;4.90;3.23;;;;;;;17.27;70.24;97127.78;5027500;28;20432;-70
2023/04/28 09:22:53;;;;;;;5.87;4.90;;;;;;;17.31;69.94;97136.97;5036412;28;20215;-71
2023/04/28 09:25:20;;;;;;;7.23;5.13;;;;;;;17.32;70.04;97133.31;5038830;28;20926;-72
2023/04/28 09:27:45;;;;;;;6.27;4.03;;;;;;;17.35;70.00;97127.63;5027531;28;20429;-71
2023/04/28 09:30:11;;;;;;;4.73;4.03;;;;;;;17.40;70.21;97139.44;5035204;28;20430;-71
2023/04/28 09:32:37;;;;;;;4.00;3.60;;;;;;;17.44;70.30;97135.38;5036067;28;20211;-71
2023/04/28 09:35:03;;;;;;;4.90;3.27;;;;;;;17.49;70.04;97139.09;5034673;28;20671;-70
2023/04/28 09:37:30;;;;;;;3.60;3.30;;;;;;;17.57;70.12;97139.94;5035094;28;20367;-72
2023/04/28 09:39:56;;;;;;;4.37;3.83;;;;;;;17.63;70.07;97139.97;5029395;28;20958;-72
2023/04/28 09:42:36;;;;;;;3.90;3.20;;;;;;;17.66;69.88;97134.25;5043412;28;20447;-69
2023/04/28 09:45:03;;;;;;;8.03;3.33;;;;;;;17.72;69.83;97134.47;5034865;28;20453;-69
2023/04/28 09:47:32;;;;;;;3.40;3.10;;;;;;;17.72;69.55;97131.81;5033882;28;20954;-70
2023/04/28 09:49:59;;;;;;;3.20;2.90;;;;;;;17.92;69.49;97137.19;5036113;28;20430;-70
2023/04/28 09:52:25;;;;;;;4.00;2.97;;;;;;;18.09;69.23;97132.34;5031431;28;20496;-70
2023/04/28 09:54:51;;;;;;;5.23;3.33;;;;;;;18.21;69.46;97130.72;5036404;28;20478;-70
2023/04/28 09:57:21;;;;;;;2.57;2.40;;;;;;;18.40;68.80;97133.56;5034537;28;20430;-71
2023/04/28 09:59:48;;;;;;;5.10;2.97;;;;;;;18.73;69.26;97128.25;5029379;28;20492;-70
2023/04/28 10:02:14;;;;;;;4.33;3.00;;;;;;;18.93;68.93;97126.56;5022777;28;20426;-71
2023/04/28 10:04:43;;;;;;;3.73;2.83;;;;;;;19.07;68.61;97130.88;5034857;28;20546;-71
2023/04/28 10:07:10;;;;;;;4.60;3.10;;;;;;;19.10;67.17;97133.09;5045265;28;20445;-70
2023/04/28 10:09:37;;;;;;;2.57;2.37;;;;;;;19.07;67.12;97136.16;5043365;28;20433;-71
2023/04/28 10:12:02;;;;;;;3.77;3.13;;;;;;;19.06;67.18;97133.75;5043639;28;20962;-70
2023/04/28 10:14:30;;;;;;;3.03;2.70;;;;;;;19.13;67.20;97132.69;5048372;28;20447;-69
2023/04/28 10:16:58;;;;;;;4.17;2.20;;;;;;;19.23;67.23;97131.44;5029085;28;20678;-70
2023/04/28 10:19:24;;;;;;;2.00;1.90;;;;;;;19.32;67.13;97124.84;5035491;28;20842;-70
2023/04/28 10:22:21;;;;;;;2.70;2.00;;;;;;;19.33;66.88;97127.31;5040493;28;20430;-71
2023/04/28 10:24:49;;;;;;;2.53;2.20;;;;;;;19.37;66.11;97114.44;5039934;28;20206;-71
2023/04/28 10:27:15;;;;;;;2.00;1.70;;;;;;;19.37;65.99;97121.56;5043866;28;20430;-70
2023/04/28 10:29:41;;;;;;;3.37;1.40;;;;;;;19.33;65.82;97123.84;5038437;28;20537;-73
2023/04/28 10:32:17;;;;;;;2.57;1.00;;;;;;;19.27;66.01;97117.53;5035834;28;20465;-71
2023/04/28 10:34:43;;;;;;;2.80;1.50;;;;;;;19.25;66.18;97126.72;5031500;28;20472;-69
2023/04/28 10:37:08;;;;;;;1.67;1.10;;;;;;;19.34;66.15;97118.28;5040009;28;20989;-71
2023/04/28 10:39:34;;;;;;;2.33;0.90;;;;;;;19.35;65.88;97124.44;5033524;28;20188;-69
2023/04/28 10:41:59;;;;;;;3.97;1.10;;;;;;;19.33;65.32;97129.16;5047562;28;20240;-71
2023/04/28 10:44:27;;;;;;;1.43;0.87;;;;;;;19.21;65.47;97133.47;5041896;28;20286;-70
2023/04/28 10:47:13;;;;;;;1.63;0.90;;;;;;;19.39;65.45;97130.16;5034525;28;20274;-70
2023/04/28 10:49:53;;;;;;;1.30;0.80;;;;;;;19.34;65.06;97133.44;5039754;28;20446;-70
2023/04/28 10:52:37;;;;;;;1.47;0.80;;;;;;;19.41;65.89;97128.09;5030555;28;20482;-70
2023/04/28 10:55:29;;;;;;;1.20;0.80;;;;;;;19.57;65.30;97129.44;5030842;28;20449;-70
2023/04/28 10:58:17;;;;;;;1.00;0.70;;;;;;;19.72;65.90;97119.38;5028146;28;20910;-70
2023/04/28 11:00:52;;;;;;;3.17;0.80;;;;;;;19.69;64.22;97127.75;5027787;28;20444;-70
2023/04/28 11:03:40;;;;;;;1.87;0.80;;;;;;;19.85;63.61;97128.28;5030631;28;20426;-70
2023/04/28 11:06:25;;;;;;;0.90;0.67;;;;;;;19.88;63.25;97133.22;5024784;28;20458;-71
2023/04/28 11:08:50;;;;;;;0.90;0.60;;;;;;;19.88;62.30;97123.38;5030228;28;20505;-71
2023/04/28 11:11:18;;;;;;;1.00;0.83;;;;;;;20.00;62.37;97131.50;5029400;28;20554;-70
2023/04/28 11:13:45;;;;;;;2.57;0.87;;;;;;;20.05;62.27;97128.19;5029421;28;20572;-70
2023/04/28 11:16:15;;;;;;;1.63;0.90;;;;;;;20.07;61.59;97136.78;5029287;28;20461;-71
2023/04/28 11:19:05;;;;;;;1.30;0.87;;;;;;;19.97;61.57;97131.94;5027931;28;20491;-70
2023/04/28 11:21:31;;;;;;;1.47;0.90;;;;;;;20.10;61.51;97123.88;5029468;28;20437;-70
2023/04/28 11:23:57;;;;;;;1.00;0.80;;;;;;;20.16;62.04;97126.72;5026112;28;20446;-70
2023/04/28 11:26:23;;;;;;;1.00;0.80;;;;;;;20.23;62.06;97127.47;5028621;28;20449;-70
2023/04/28 11:28:50;;;;;;;2.23;0.83;;;;;;;20.21;61.06;97118.88;5027531;28;20454;-70